sensor_id;sensor_type;location;lat;lon;timestamp;pressure;altitude;pressure_sealevel;temperature;humidity
48926;BME280;39838;59.938;30.642;2023-03-21T00:00:39;99534.19;;;6.12;77.13
48926;BME280;39838;59.938;30.642;2023-03-21T00:03:06;99550.53;;;6.12;77.25
48926;BME280;39838;59.938;30.642;2023-03-21T00:05:33;99549.66;;;6.09;78.08
48926;BME280;39838;59.938;30.642;2023-03-21T00:08:01;99548.78;;;6.08;78.18
48926;BME280;39838;59.938;30.642;2023-03-21T00:10:29;99546.25;;;6.10;78.50
48926;BME280;39838;59.938;30.642;2023-03-21T00:12:56;99548.81;;;6.16;78.51
48926;BME280;39838;59.938;30.642;2023-03-21T00:15:24;99535.91;;;6.13;78.52
48926;BME280;39838;59.938;30.642;2023-03-21T00:17:53;99548.84;;;6.19;78.57
48926;BME280;39838;59.938;30.642;2023-03-21T00:20:29;99552.28;;;6.18;78.80
48926;BME280;39838;59.938;30.642;2023-03-21T00:22:59;99545.41;;;6.17;79.34
48926;BME280;39838;59.938;30.642;2023-03-21T00:25:26;99553.13;;;6.23;79.43
48926;BME280;39838;59.938;30.642;2023-03-21T00:27:55;99554.88;;;6.27;79.40
48926;BME280;39838;59.938;30.642;2023-03-21T00:30:22;99549.69;;;6.21;80.07
48926;BME280;39838;59.938;30.642;2023-03-21T00:32:49;99542.78;;;6.15;80.36
48926;BME280;39838;59.938;30.642;2023-03-21T00:35:17;99552.28;;;6.19;80.32
48926;BME280;39838;59.938;30.642;2023-03-21T00:37:44;99551.41;;;6.20;80.18
48926;BME280;39838;59.938;30.642;2023-03-21T00:40:12;99537.66;;;6.20;80.40
48926;BME280;39838;59.938;30.642;2023-03-21T00:42:39;99531.63;;;6.15;80.64
48926;BME280;39838;59.938;30.642;2023-03-21T00:45:09;99530.75;;;6.07;80.75
48926;BME280;39838;59.938;30.642;2023-03-21T00:47:36;99521.25;;;6.01;80.94
48926;BME280;39838;59.938;30.642;2023-03-21T00:50:04;99520.41;;;5.97;81.17
48926;BME280;39838;59.938;30.642;2023-03-21T00:52:32;99521.25;;;5.93;80.97
48926;BME280;39838;59.938;30.642;2023-03-21T00:54:59;99516.94;;;5.94;81.26
48926;BME280;39838;59.938;30.642;2023-03-21T00:57:27;99507.44;;;5.87;81.23
48926;BME280;39838;59.938;30.642;2023-03-21T00:59:55;99519.44;;;5.80;81.38
48926;BME280;39838;59.938;30.642;2023-03-21T01:02:24;99519.44;;;5.77;81.90
48926;BME280;39838;59.938;30.642;2023-03-21T01:04:52;99522.00;;;5.74;81.86
48926;BME280;39838;59.938;30.642;2023-03-21T01:07:20;99522.00;;;5.71;82.01
48926;BME280;39838;59.938;30.642;2023-03-21T01:09:47;99532.28;;;5.66;82.41
48926;BME280;39838;59.938;30.642;2023-03-21T01:12:15;99534.81;;;5.59;82.45
48926;BME280;39838;59.938;30.642;2023-03-21T01:14:42;99533.97;;;5.57;82.70
48926;BME280;39838;59.938;30.642;2023-03-21T01:17:10;99523.66;;;5.57;82.50
48926;BME280;39838;59.938;30.642;2023-03-21T01:19:38;99529.69;;;5.59;82.27
48926;BME280;39838;59.938;30.642;2023-03-21T01:22:06;99518.47;;;5.51;82.92
48926;BME280;39838;59.938;30.642;2023-03-21T01:24:33;99526.13;;;5.41;82.68
48926;BME280;39838;59.938;30.642;2023-03-21T01:27:01;99526.09;;;5.32;83.74
48926;BME280;39838;59.938;30.642;2023-03-21T01:29:28;99522.59;;;5.21;83.72
48926;BME280;39838;59.938;30.642;2023-03-21T01:31:56;99532.00;;;5.13;84.17
48926;BME280;39838;59.938;30.642;2023-03-21T01:34:23;99527.66;;;5.07;84.08
48926;BME280;39838;59.938;30.642;2023-03-21T01:36:52;99535.38;;;5.03;83.68
48926;BME280;39838;59.938;30.642;2023-03-21T01:39:19;99534.47;;;4.98;83.44
48926;BME280;39838;59.938;30.642;2023-03-21T01:41:47;99530.13;;;4.89;83.64
48926;BME280;39838;59.938;30.642;2023-03-21T01:44:16;99531.75;;;4.81;83.59
48926;BME280;39838;59.938;30.642;2023-03-21T01:46:45;99542.84;;;4.72;83.48
48926;BME280;39838;59.938;30.642;2023-03-21T01:49:16;99562.50;;;4.61;82.68
48926;BME280;39838;59.938;30.642;2023-03-21T01:51:47;99558.72;;;4.27;81.89
48926;BME280;39838;59.938;30.642;2023-03-21T01:54:21;99562.69;;;3.97;81.57
48926;BME280;39838;59.938;30.642;2023-03-21T01:56:50;99576.91;;;3.71;81.20
48926;BME280;39838;59.938;30.642;2023-03-21T01:59:23;99567.97;;;3.43;81.63
48926;BME280;39838;59.938;30.642;2023-03-21T02:01:51;99584.81;;;3.22;81.61
48926;BME280;39838;59.938;30.642;2023-03-21T02:04:19;99577.63;;;3.01;81.54
48926;BME280;39838;59.938;30.642;2023-03-21T02:06:56;99572.09;;;2.76;81.87
48926;BME280;39838;59.938;30.642;2023-03-21T02:09:27;99572.56;;;2.53;81.89
48926;BME280;39838;59.938;30.642;2023-03-21T02:11:57;99573.84;;;2.30;82.39
48926;BME280;39838;59.938;30.642;2023-03-21T02:14:25;99563.19;;;2.08;82.10
48926;BME280;39838;59.938;30.642;2023-03-21T02:16:59;99583.34;;;1.90;82.69
48926;BME280;39838;59.938;30.642;2023-03-21T02:28:22;99576.25;;;1.36;83.30
48926;BME280;39838;59.938;30.642;2023-03-21T02:31:07;99583.69;;;1.27;83.57
48926;BME280;39838;59.938;30.642;2023-03-21T02:34:02;99568.97;;;1.17;83.72
48926;BME280;39838;59.938;30.642;2023-03-21T02:36:52;99571.47;;;1.15;84.01
48926;BME280;39838;59.938;30.642;2023-03-21T02:39:25;99568.75;;;1.07;84.18
48926;BME280;39838;59.938;30.642;2023-03-21T02:42:02;99567.88;;;1.07;84.24
48926;BME280;39838;59.938;30.642;2023-03-21T02:44:36;99581.44;;;1.03;84.43
48926;BME280;39838;59.938;30.642;2023-03-21T02:47:09;99555.47;;;0.86;84.75
48926;BME280;39838;59.938;30.642;2023-03-21T02:49:42;99573.59;;;0.95;85.16
48926;BME280;39838;59.938;30.642;2023-03-21T02:52:14;99554.47;;;0.81;84.75
48926;BME280;39838;59.938;30.642;2023-03-21T02:54:43;99580.38;;;0.95;85.06
48926;BME280;39838;59.938;30.642;2023-03-21T02:57:14;99581.19;;;0.92;85.21
48926;BME280;39838;59.938;30.642;2023-03-21T02:59:43;99570.94;;;0.91;85.35
48926;BME280;39838;59.938;30.642;2023-03-21T03:02:11;99572.53;;;0.87;85.08
48926;BME280;39838;59.938;30.642;2023-03-21T03:04:39;99577.63;;;0.86;85.09
48926;BME280;39838;59.938;30.642;2023-03-21T03:07:19;99567.34;;;0.84;85.00
48926;BME280;39838;59.938;30.642;2023-03-21T03:10:01;99563.91;;;0.82;85.08
48926;BME280;39838;59.938;30.642;2023-03-21T03:12:37;99563.78;;;0.77;85.30
48926;BME280;39838;59.938;30.642;2023-03-21T03:15:16;99565.44;;;0.75;85.38
48926;BME280;39838;59.938;30.642;2023-03-21T03:17:54;99573.84;;;0.71;85.57
48926;BME280;39838;59.938;30.642;2023-03-21T03:20:37;99559.16;;;0.63;85.30
48926;BME280;39838;59.938;30.642;2023-03-21T03:23:19;99571.13;;;0.64;85.99
48926;BME280;39838;59.938;30.642;2023-03-21T03:25:54;99538.31;;;0.47;86.22
48926;BME280;39838;59.938;30.642;2023-03-21T03:28:26;99565.81;;;0.56;86.45
48926;BME280;39838;59.938;30.642;2023-03-21T03:30:56;99567.41;;;0.52;86.47
48926;BME280;39838;59.938;30.642;2023-03-21T03:33:26;99572.56;;;0.54;86.99
48926;BME280;39838;59.938;30.642;2023-03-21T03:35:56;99523.38;;;0.28;86.49
48926;BME280;39838;59.938;30.642;2023-03-21T03:38:27;99558.03;;;0.51;86.80
48926;BME280;39838;59.938;30.642;2023-03-21T03:40:59;99539.78;;;0.38;86.80
48926;BME280;39838;59.938;30.642;2023-03-21T03:43:31;99565.66;;;0.50;87.05
48926;BME280;39838;59.938;30.642;2023-03-21T03:46:04;99568.19;;;0.48;86.72
48926;BME280;39838;59.938;30.642;2023-03-21T03:48:41;99590.34;;;0.49;87.04
48926;BME280;39838;59.938;30.642;2023-03-21T03:51:15;99583.44;;;0.47;87.23
48926;BME280;39838;59.938;30.642;2023-03-21T03:53:53;99581.75;;;0.47;86.91
48926;BME280;39838;59.938;30.642;2023-03-21T03:56:24;99585.22;;;0.48;86.80
48926;BME280;39838;59.938;30.642;2023-03-21T03:58:52;99588.63;;;0.48;87.11
48926;BME280;39838;59.938;30.642;2023-03-21T04:01:19;99594.63;;;0.50;87.33
48926;BME280;39838;59.938;30.642;2023-03-21T04:03:47;99595.44;;;0.48;87.56
48926;BME280;39838;59.938;30.642;2023-03-21T04:06:15;99594.63;;;0.50;86.95
48926;BME280;39838;59.938;30.642;2023-03-21T04:08:42;99587.81;;;0.49;87.31
48926;BME280;39838;59.938;30.642;2023-03-21T04:11:12;99592.91;;;0.49;87.15
48926;BME280;39838;59.938;30.642;2023-03-21T04:13:40;99603.13;;;0.49;87.45
48926;BME280;39838;59.938;30.642;2023-03-21T04:16:08;99598.84;;;0.48;87.40
48926;BME280;39838;59.938;30.642;2023-03-21T04:18:36;99608.28;;;0.51;87.32
48926;BME280;39838;59.938;30.642;2023-03-21T04:21:09;99581.63;;;0.41;87.55
48926;BME280;39838;59.938;30.642;2023-03-21T04:23:37;99611.81;;;0.56;87.37
48926;BME280;39838;59.938;30.642;2023-03-21T04:26:05;99609.31;;;0.58;87.59
48926;BME280;39838;59.938;30.642;2023-03-21T04:28:34;99617.88;;;0.60;87.45
48926;BME280;39838;59.938;30.642;2023-03-21T04:31:04;99621.25;;;0.59;87.13
48926;BME280;39838;59.938;30.642;2023-03-21T04:33:31;99627.25;;;0.61;86.97
48926;BME280;39838;59.938;30.642;2023-03-21T04:36:04;99635.75;;;0.60;87.23
48926;BME280;39838;59.938;30.642;2023-03-21T04:38:31;99618.53;;;0.52;86.99
48926;BME280;39838;59.938;30.642;2023-03-21T04:40:59;99631.63;;;0.63;87.50
48926;BME280;39838;59.938;30.642;2023-03-21T04:43:26;99643.59;;;0.66;86.94
48926;BME280;39838;59.938;30.642;2023-03-21T04:45:55;99649.63;;;0.68;86.95
48926;BME280;39838;59.938;30.642;2023-03-21T04:48:23;99642.00;;;0.69;87.55
48926;BME280;39838;59.938;30.642;2023-03-21T04:50:51;99653.16;;;0.73;87.14
48926;BME280;39838;59.938;30.642;2023-03-21T04:53:18;99650.56;;;0.71;87.33
48926;BME280;39838;59.938;30.642;2023-03-21T04:55:45;99657.41;;;0.72;87.44
48926;BME280;39838;59.938;30.642;2023-03-21T04:58:13;99653.09;;;0.70;87.18
48926;BME280;39838;59.938;30.642;2023-03-21T05:00:40;99653.13;;;0.71;86.85
48926;BME280;39838;59.938;30.642;2023-03-21T05:03:09;99646.25;;;0.69;87.15
48926;BME280;39838;59.938;30.642;2023-03-21T05:05:45;99651.38;;;0.69;87.24
48926;BME280;39838;59.938;30.642;2023-03-21T05:08:13;99647.13;;;0.71;86.92
48926;BME280;39838;59.938;30.642;2023-03-21T05:10:41;99645.47;;;0.73;86.91
48926;BME280;39838;59.938;30.642;2023-03-21T05:13:08;99656.75;;;0.81;86.79
48926;BME280;39838;59.938;30.642;2023-03-21T05:15:35;99655.97;;;0.82;86.90
48926;BME280;39838;59.938;30.642;2023-03-21T05:18:03;99656.75;;;0.81;86.64
48926;BME280;39838;59.938;30.642;2023-03-21T05:20:38;99661.06;;;0.82;86.72
48926;BME280;39838;59.938;30.642;2023-03-21T05:23:07;99660.25;;;0.83;86.78
48926;BME280;39838;59.938;30.642;2023-03-21T05:25:36;99662.00;;;0.86;86.63
48926;BME280;39838;59.938;30.642;2023-03-21T05:28:04;99663.69;;;0.85;86.87
48926;BME280;39838;59.938;30.642;2023-03-21T05:30:32;99673.94;;;0.85;86.43
48926;BME280;39838;59.938;30.642;2023-03-21T05:32:59;99665.53;;;0.89;86.58
48926;BME280;39838;59.938;30.642;2023-03-21T05:35:27;99667.31;;;0.93;86.77
48926;BME280;39838;59.938;30.642;2023-03-21T05:37:56;99667.34;;;0.95;86.53
48926;BME280;39838;59.938;30.642;2023-03-21T05:40:23;99671.81;;;1.02;86.46
48926;BME280;39838;59.938;30.642;2023-03-21T05:42:50;99668.50;;;1.07;86.12
48926;BME280;39838;59.938;30.642;2023-03-21T05:45:18;99676.19;;;1.07;86.44
48926;BME280;39838;59.938;30.642;2023-03-21T05:47:45;99672.00;;;1.09;86.05
48926;BME280;39838;59.938;30.642;2023-03-21T05:50:13;99673.88;;;1.17;85.96
48926;BME280;39838;59.938;30.642;2023-03-21T05:52:40;99679.09;;;1.21;85.66
48926;BME280;39838;59.938;30.642;2023-03-21T05:55:09;99684.19;;;1.20;86.10
48926;BME280;39838;59.938;30.642;2023-03-21T05:57:36;99681.03;;;1.30;86.06
48926;BME280;39838;59.938;30.642;2023-03-21T06:00:07;99673.41;;;1.33;85.64
48926;BME280;39838;59.938;30.642;2023-03-21T06:02:35;99694.78;;;1.35;85.43
48926;BME280;39838;59.938;30.642;2023-03-21T06:05:02;99704.22;;;1.36;85.85
48926;BME280;39838;59.938;30.642;2023-03-21T06:07:30;99700.81;;;1.37;85.41
48926;BME280;39838;59.938;30.642;2023-03-21T06:09:57;99696.66;;;1.42;85.38
48926;BME280;39838;59.938;30.642;2023-03-21T06:12:25;99713.91;;;1.49;85.13
48926;BME280;39838;59.938;30.642;2023-03-21T06:14:53;99717.22;;;1.45;85.24
48926;BME280;39838;59.938;30.642;2023-03-21T06:17:20;99704.56;;;1.51;85.13
48926;BME280;39838;59.938;30.642;2023-03-21T06:19:47;99708.09;;;1.56;84.74
48926;BME280;39838;59.938;30.642;2023-03-21T06:22:15;99691.81;;;1.54;84.92
48926;BME280;39838;59.938;30.642;2023-03-21T06:24:42;99702.84;;;1.50;84.92
48926;BME280;39838;59.938;30.642;2023-03-21T06:27:10;99699.44;;;1.51;84.80
48926;BME280;39838;59.938;30.642;2023-03-21T06:29:38;99715.63;;;1.50;84.49
48926;BME280;39838;59.938;30.642;2023-03-21T06:32:06;99722.53;;;1.54;84.38
48926;BME280;39838;59.938;30.642;2023-03-21T06:34:33;99723.34;;;1.52;84.26
48926;BME280;39838;59.938;30.642;2023-03-21T06:37:01;99718.13;;;1.47;84.34
48926;BME280;39838;59.938;30.642;2023-03-21T06:39:28;99728.38;;;1.49;84.17
48926;BME280;39838;59.938;30.642;2023-03-21T06:41:56;99728.53;;;1.55;84.10
48926;BME280;39838;59.938;30.642;2023-03-21T06:44:23;99737.22;;;1.61;84.46
48926;BME280;39838;59.938;30.642;2023-03-21T06:46:52;99727.94;;;1.65;84.06
48926;BME280;39838;59.938;30.642;2023-03-21T06:49:19;99739.94;;;1.68;84.19
48926;BME280;39838;59.938;30.642;2023-03-21T06:51:46;99734.84;;;1.69;83.87
48926;BME280;39838;59.938;30.642;2023-03-21T06:54:14;99722.09;;;1.71;84.24
48926;BME280;39838;59.938;30.642;2023-03-21T06:56:43;99733.53;;;1.86;83.88
48926;BME280;39838;59.938;30.642;2023-03-21T06:59:10;99739.50;;;1.85;83.71
48926;BME280;39838;59.938;30.642;2023-03-21T07:01:37;99742.13;;;1.88;83.64
48926;BME280;39838;59.938;30.642;2023-03-21T07:04:07;99748.34;;;1.98;83.54
48926;BME280;39838;59.938;30.642;2023-03-21T07:06:34;99742.50;;;2.05;83.26
48926;BME280;39838;59.938;30.642;2023-03-21T07:09:02;99747.69;;;2.08;83.11
48926;BME280;39838;59.938;30.642;2023-03-21T07:11:30;99751.13;;;2.09;82.99
48926;BME280;39838;59.938;30.642;2023-03-21T07:13:58;99755.38;;;2.08;82.85
48926;BME280;39838;59.938;30.642;2023-03-21T07:16:25;99758.75;;;2.06;82.70
48926;BME280;39838;59.938;30.642;2023-03-21T07:18:52;99736.28;;;1.94;82.67
48926;BME280;39838;59.938;30.642;2023-03-21T07:21:21;99762.91;;;2.02;82.46
48926;BME280;39838;59.938;30.642;2023-03-21T07:23:49;99757.81;;;2.02;82.83
48926;BME280;39838;59.938;30.642;2023-03-21T07:26:16;99761.38;;;2.09;82.83
48926;BME280;39838;59.938;30.642;2023-03-21T07:28:44;99758.31;;;2.25;82.59
48926;BME280;39838;59.938;30.642;2023-03-21T07:31:13;99741.28;;;2.29;82.65
48926;BME280;39838;59.938;30.642;2023-03-21T07:33:41;99760.53;;;2.49;82.46
48926;BME280;39838;59.938;30.642;2023-03-21T07:36:09;99766.78;;;2.63;82.19
48926;BME280;39838;59.938;30.642;2023-03-21T07:38:41;99765.34;;;2.78;81.48
48926;BME280;39838;59.938;30.642;2023-03-21T07:41:08;99765.41;;;2.79;81.27
48926;BME280;39838;59.938;30.642;2023-03-21T07:43:35;99771.31;;;2.77;80.79
48926;BME280;39838;59.938;30.642;2023-03-21T07:46:03;99777.97;;;2.65;80.35
48926;BME280;39838;59.938;30.642;2023-03-21T07:48:30;99771.75;;;2.54;80.37
48926;BME280;39838;59.938;30.642;2023-03-21T07:50:58;99774.91;;;2.42;80.26
48926;BME280;39838;59.938;30.642;2023-03-21T07:53:26;99773.22;;;2.43;80.40
48926;BME280;39838;59.938;30.642;2023-03-21T07:55:55;99769.94;;;2.50;80.72
48926;BME280;39838;59.938;30.642;2023-03-21T07:58:23;99784.75;;;2.63;80.52
48926;BME280;39838;59.938;30.642;2023-03-21T08:00:51;99786.44;;;2.63;79.89
48926;BME280;39838;59.938;30.642;2023-03-21T08:03:18;99783.00;;;2.62;79.91
48926;BME280;39838;59.938;30.642;2023-03-21T08:05:46;99786.53;;;2.66;80.13
48926;BME280;39838;59.938;30.642;2023-03-21T08:08:13;99785.97;;;2.82;80.02
48926;BME280;39838;59.938;30.642;2023-03-21T08:10:41;99770.56;;;2.81;79.59
48926;BME280;39838;59.938;30.642;2023-03-21T08:13:11;99780.25;;;2.95;79.65
48926;BME280;39838;59.938;30.642;2023-03-21T08:15:38;99794.19;;;3.08;79.22
48926;BME280;39838;59.938;30.642;2023-03-21T08:18:06;99795.41;;;3.28;78.84
48926;BME280;39838;59.938;30.642;2023-03-21T08:20:34;99801.78;;;3.49;78.72
48926;BME280;39838;59.938;30.642;2023-03-21T08:23:01;99796.75;;;3.55;77.87
48926;BME280;39838;59.938;30.642;2023-03-21T08:25:29;99809.72;;;3.64;77.14
48926;BME280;39838;59.938;30.642;2023-03-21T08:27:57;99806.31;;;3.65;76.96
48926;BME280;39838;59.938;30.642;2023-03-21T08:30:27;99794.09;;;3.50;76.59
48926;BME280;39838;59.938;30.642;2023-03-21T08:32:56;99817.16;;;3.47;76.09
48926;BME280;39838;59.938;30.642;2023-03-21T08:35:24;99822.94;;;3.37;77.00
48926;BME280;39838;59.938;30.642;2023-03-21T08:37:52;99823.94;;;3.45;77.47
48926;BME280;39838;59.938;30.642;2023-03-21T08:40:19;99830.13;;;3.55;77.15
48926;BME280;39838;59.938;30.642;2023-03-21T08:42:46;99832.84;;;3.63;77.23
48926;BME280;39838;59.938;30.642;2023-03-21T08:45:15;99825.22;;;3.67;76.25
48926;BME280;39838;59.938;30.642;2023-03-21T08:47:45;99825.22;;;3.67;76.21
48926;BME280;39838;59.938;30.642;2023-03-21T08:50:14;99826.00;;;3.65;75.95
48926;BME280;39838;59.938;30.642;2023-03-21T08:52:41;99823.28;;;3.55;75.97
48926;BME280;39838;59.938;30.642;2023-03-21T08:55:10;99843.84;;;3.57;76.11
48926;BME280;39838;59.938;30.642;2023-03-21T08:57:39;99840.66;;;3.70;75.77
48926;BME280;39838;59.938;30.642;2023-03-21T09:00:09;99838.19;;;3.76;75.07
48926;BME280;39838;59.938;30.642;2023-03-21T09:02:39;99843.34;;;3.78;75.41
48926;BME280;39838;59.938;30.642;2023-03-21T09:05:08;99850.28;;;3.80;74.82
48926;BME280;39838;59.938;30.642;2023-03-21T09:07:37;99842.56;;;3.80;74.80
48926;BME280;39838;59.938;30.642;2023-03-21T09:10:06;99852.66;;;3.71;74.16
48926;BME280;39838;59.938;30.642;2023-03-21T09:12:34;99855.97;;;3.64;74.22
48926;BME280;39838;59.938;30.642;2023-03-21T09:15:03;99855.97;;;3.64;74.13
48926;BME280;39838;59.938;30.642;2023-03-21T09:17:30;99851.78;;;3.69;73.72
48926;BME280;39838;59.938;30.642;2023-03-21T09:19:57;99853.41;;;3.64;72.19
48926;BME280;39838;59.938;30.642;2023-03-21T09:22:27;99852.44;;;3.58;72.33
48926;BME280;39838;59.938;30.642;2023-03-21T09:24:55;99843.09;;;3.61;72.09
48926;BME280;39838;59.938;30.642;2023-03-21T09:27:22;99868.16;;;3.76;71.66
48926;BME280;39838;59.938;30.642;2023-03-21T09:29:52;99861.41;;;3.79;71.52
48926;BME280;39838;59.938;30.642;2023-03-21T09:32:20;99861.66;;;3.95;71.49
48926;BME280;39838;59.938;30.642;2023-03-21T09:34:48;99865.97;;;3.97;70.63
48926;BME280;39838;59.938;30.642;2023-03-21T09:37:15;99846.91;;;3.84;70.86
48926;BME280;39838;59.938;30.642;2023-03-21T09:39:44;99869.47;;;4.01;70.55
48926;BME280;39838;59.938;30.642;2023-03-21T09:42:32;99880.19;;;4.28;71.00
48926;BME280;39838;59.938;30.642;2023-03-21T09:45:09;99870.16;;;4.47;69.90
48926;BME280;39838;59.938;30.642;2023-03-21T09:47:39;99887.47;;;4.58;70.26
48926;BME280;39838;59.938;30.642;2023-03-21T09:50:17;99880.88;;;4.77;69.90
48926;BME280;39838;59.938;30.642;2023-03-21T09:52:47;99881.22;;;5.03;69.03
48926;BME280;39838;59.938;30.642;2023-03-21T09:55:20;99898.41;;;5.07;68.48
48926;BME280;39838;59.938;30.642;2023-03-21T09:57:50;99859.53;;;4.87;67.34
48926;BME280;39838;59.938;30.642;2023-03-21T10:00:26;99902.66;;;5.02;66.47
48926;BME280;39838;59.938;30.642;2023-03-21T10:02:59;99901.66;;;4.91;66.76
48926;BME280;39838;59.938;30.642;2023-03-21T10:05:29;99898.22;;;4.90;66.42
48926;BME280;39838;59.938;30.642;2023-03-21T10:08:00;99896.78;;;5.12;65.50
48926;BME280;39838;59.938;30.642;2023-03-21T10:10:34;99876.16;;;5.09;64.56
48926;BME280;39838;59.938;30.642;2023-03-21T10:13:04;99900.28;;;5.19;64.53
48926;BME280;39838;59.938;30.642;2023-03-21T10:15:36;99904.41;;;5.03;64.54
48926;BME280;39838;59.938;30.642;2023-03-21T10:18:05;99894.78;;;4.91;64.70
48926;BME280;39838;59.938;30.642;2023-03-21T10:20:34;99893.78;;;4.80;64.66
48926;BME280;39838;59.938;30.642;2023-03-21T10:23:04;99883.19;;;4.59;64.22
48926;BME280;39838;59.938;30.642;2023-03-21T10:25:36;99902.97;;;4.63;64.91
48926;BME280;39838;59.938;30.642;2023-03-21T10:28:07;99903.00;;;4.66;64.54
48926;BME280;39838;59.938;30.642;2023-03-21T10:30:41;99896.41;;;4.83;63.87
48926;BME280;39838;59.938;30.642;2023-03-21T10:33:12;99913.75;;;4.97;63.77
48926;BME280;39838;59.938;30.642;2023-03-21T10:35:40;99903.72;;;5.18;62.45
48926;BME280;39838;59.938;30.642;2023-03-21T10:38:14;99905.59;;;5.31;63.03
48926;BME280;39838;59.938;30.642;2023-03-21T10:40:44;99911.59;;;5.32;61.94
48926;BME280;39838;59.938;30.642;2023-03-21T10:43:18;99911.47;;;5.21;60.99
48926;BME280;39838;59.938;30.642;2023-03-21T10:45:47;99912.28;;;5.15;61.40
48926;BME280;39838;59.938;30.642;2023-03-21T10:48:14;99905.63;;;5.34;60.68
48926;BME280;39838;59.938;30.642;2023-03-21T10:50:42;99901.63;;;5.61;60.27
48926;BME280;39838;59.938;30.642;2023-03-21T10:53:17;99901.66;;;5.64;59.67
48926;BME280;39838;59.938;30.642;2023-03-21T10:55:51;99920.50;;;5.60;58.44
48926;BME280;39838;59.938;30.642;2023-03-21T10:58:22;99923.69;;;5.37;57.86
48926;BME280;39838;59.938;30.642;2023-03-21T11:00:54;99919.97;;;5.14;57.99
48926;BME280;39838;59.938;30.642;2023-03-21T11:03:26;99921.50;;;5.00;58.74
48926;BME280;39838;59.938;30.642;2023-03-21T11:06:01;99919.84;;;5.05;58.28
48926;BME280;39838;59.938;30.642;2023-03-21T11:08:29;99926.13;;;5.27;58.62
48926;BME280;39838;59.938;30.642;2023-03-21T11:11:02;99929.78;;;5.45;57.35
48926;BME280;39838;59.938;30.642;2023-03-21T11:13:35;99915.19;;;5.44;56.90
48926;BME280;39838;59.938;30.642;2023-03-21T11:16:07;99922.88;;;5.41;56.67
48926;BME280;39838;59.938;30.642;2023-03-21T11:18:39;99935.53;;;5.23;56.59
48926;BME280;39838;59.938;30.642;2023-03-21T11:21:09;99949.03;;;5.05;56.52
48926;BME280;39838;59.938;30.642;2023-03-21T11:23:39;99931.56;;;4.83;56.45
48926;BME280;39838;59.938;30.642;2023-03-21T11:26:15;99907.09;;;4.52;57.22
48926;BME280;39838;59.938;30.642;2023-03-21T11:28:45;99937.31;;;4.66;57.02
48926;BME280;39838;59.938;30.642;2023-03-21T11:31:13;99934.91;;;4.74;57.42
48926;BME280;39838;59.938;30.642;2023-03-21T11:33:42;99926.56;;;4.93;57.34
48926;BME280;39838;59.938;30.642;2023-03-21T11:36:26;99920.88;;;5.19;57.59
48926;BME280;39838;59.938;30.642;2023-03-21T11:39:02;99929.81;;;5.47;56.13
48926;BME280;39838;59.938;30.642;2023-03-21T11:41:41;99925.75;;;5.67;56.01
48926;BME280;39838;59.938;30.642;2023-03-21T11:44:24;99932.53;;;5.61;55.05
48926;BME280;39838;59.938;30.642;2023-03-21T11:46:52;99920.28;;;5.41;53.47
48926;BME280;39838;59.938;30.642;2023-03-21T11:49:21;99919.31;;;5.29;52.89
48926;BME280;39838;59.938;30.642;2023-03-21T11:51:56;99901.81;;;5.02;52.76
48926;BME280;39838;59.938;30.642;2023-03-21T11:54:32;99916.44;;;5.07;53.89
48926;BME280;39838;59.938;30.642;2023-03-21T11:57:07;99917.22;;;5.00;54.38
48926;BME280;39838;59.938;30.642;2023-03-21T11:59:41;99914.69;;;5.02;53.76
48926;BME280;39838;59.938;30.642;2023-03-21T12:02:32;99899.06;;;4.89;53.72
48926;BME280;39838;59.938;30.642;2023-03-21T12:05:04;99913.88;;;5.07;54.87
48926;BME280;39838;59.938;30.642;2023-03-21T12:07:47;99913.22;;;5.22;54.39
48926;BME280;39838;59.938;30.642;2023-03-21T12:10:31;99907.22;;;5.23;54.08
48926;BME280;39838;59.938;30.642;2023-03-21T12:13:13;99910.59;;;5.19;54.06
48926;BME280;39838;59.938;30.642;2023-03-21T12:15:49;99885.44;;;4.97;54.47
48926;BME280;39838;59.938;30.642;2023-03-21T12:18:39;99905.94;;;4.89;55.11
48926;BME280;39838;59.938;30.642;2023-03-21T12:21:16;99902.31;;;4.76;54.62
48926;BME280;39838;59.938;30.642;2023-03-21T12:23:54;99897.22;;;4.81;55.00
48926;BME280;39838;59.938;30.642;2023-03-21T12:26:26;99902.34;;;4.78;55.59
48926;BME280;39838;59.938;30.642;2023-03-21T12:29:09;99919.44;;;4.74;55.46
48926;BME280;39838;59.938;30.642;2023-03-21T12:31:49;99912.50;;;4.69;56.05
48926;BME280;39838;59.938;30.642;2023-03-21T12:34:39;99912.53;;;4.70;55.64
48926;BME280;39838;59.938;30.642;2023-03-21T12:37:16;99913.31;;;4.66;55.25
48926;BME280;39838;59.938;30.642;2023-03-21T12:39:47;99912.56;;;4.73;55.66
48926;BME280;39838;59.938;30.642;2023-03-21T12:42:39;99920.41;;;4.82;55.22
48926;BME280;39838;59.938;30.642;2023-03-21T12:45:16;99908.50;;;4.89;55.36
48926;BME280;39838;59.938;30.642;2023-03-21T12:47:48;99914.69;;;5.02;56.37
48926;BME280;39838;59.938;30.642;2023-03-21T12:50:21;99914.09;;;5.26;56.09
48926;BME280;39838;59.938;30.642;2023-03-21T12:52:53;99893.66;;;5.38;56.50
48926;BME280;39838;59.938;30.642;2023-03-21T12:55:23;99910.97;;;5.50;56.36
48926;BME280;39838;59.938;30.642;2023-03-21T12:57:54;99909.31;;;5.56;56.29
48926;BME280;39838;59.938;30.642;2023-03-21T13:00:30;99914.50;;;5.61;56.30
48926;BME280;39838;59.938;30.642;2023-03-21T13:03:03;99911.78;;;5.48;56.67
48926;BME280;39838;59.938;30.642;2023-03-21T13:05:33;99899.69;;;5.41;56.93
48926;BME280;39838;59.938;30.642;2023-03-21T13:08:06;99894.56;;;5.44;56.56
48926;BME280;39838;59.938;30.642;2023-03-21T13:10:38;99917.78;;;5.47;56.24
48926;BME280;39838;59.938;30.642;2023-03-21T13:13:14;99916.81;;;5.36;56.59
48926;BME280;39838;59.938;30.642;2023-03-21T13:15:59;99897.59;;;5.08;56.99
48926;BME280;39838;59.938;30.642;2023-03-21T13:21:18;99913.75;;;4.97;57.22
48926;BME280;39838;59.938;30.642;2023-03-21T13:23:59;99920.44;;;4.85;57.04
48926;BME280;39838;59.938;30.642;2023-03-21T13:26:36;99921.13;;;4.72;57.76
48926;BME280;39838;59.938;30.642;2023-03-21T13:29:21;99927.03;;;4.65;57.55